sensor_id;sensor_type;location;lat;lon;timestamp;pressure;altitude;pressure_sealevel;temperature;humidity
79144;BME280;68551;47.484;19.092;2023-07-13T00:00:36;100141.59;;;26.86;55.52
79144;BME280;68551;47.484;19.092;2023-07-13T00:03:38;100132.47;;;26.68;56.40
79144;BME280;68551;47.484;19.092;2023-07-13T00:06:44;100122.81;;;26.65;56.35
79144;BME280;68551;47.484;19.092;2023-07-13T00:09:48;100117.88;;;26.33;58.18
79144;BME280;68551;47.484;19.092;2023-07-13T00:12:55;100129.47;;;26.05;60.10
79144;BME280;68551;47.484;19.092;2023-07-13T00:15:58;100105.91;;;25.60;62.10
79144;BME280;68551;47.484;19.092;2023-07-13T00:19:00;100091.84;;;25.30;63.46
79144;BME280;68551;47.484;19.092;2023-07-13T00:22:09;100077.25;;;25.25;63.10
79144;BME280;68551;47.484;19.092;2023-07-13T00:25:16;100075.13;;;25.04;63.42
79144;BME280;68551;47.484;19.092;2023-07-13T00:28:19;100067.69;;;24.91;63.46
79144;BME280;68551;47.484;19.092;2023-07-13T00:31:24;100056.56;;;24.91;62.25
79144;BME280;68551;47.484;19.092;2023-07-13T00:34:26;100046.22;;;24.92;61.89
79144;BME280;68551;47.484;19.092;2023-07-13T00:37:29;100031.84;;;24.98;60.77
79144;BME280;68551;47.484;19.092;2023-07-13T00:40:34;100029.03;;;25.07;60.02
79144;BME280;68551;47.484;19.092;2023-07-13T00:43:36;100012.47;;;25.02;59.93
79144;BME280;68551;47.484;19.092;2023-07-13T00:46:42;99992.13;;;24.76;60.47
79144;BME280;68551;47.484;19.092;2023-07-13T00:49:44;100012.97;;;24.95;59.79
79144;BME280;68551;47.484;19.092;2023-07-13T00:52:49;100008.19;;;25.04;59.37
79144;BME280;68551;47.484;19.092;2023-07-13T00:55:53;100008.88;;;25.10;59.01
79144;BME280;68551;47.484;19.092;2023-07-13T00:59:00;99993.59;;;24.99;58.75
79144;BME280;68551;47.484;19.092;2023-07-13T01:02:08;99991.28;;;24.92;59.35
79144;BME280;68551;47.484;19.092;2023-07-13T01:05:17;99978.84;;;24.72;59.84
79144;BME280;68551;47.484;19.092;2023-07-13T01:08:23;99971.78;;;24.49;60.42
79144;BME280;68551;47.484;19.092;2023-07-13T01:11:26;99980.00;;;24.54;60.70
79144;BME280;68551;47.484;19.092;2023-07-13T01:14:33;99973.25;;;24.38;61.26
79144;BME280;68551;47.484;19.092;2023-07-13T01:17:35;99962.94;;;24.38;61.46
79144;BME280;68551;47.484;19.092;2023-07-13T01:20:39;99966.06;;;24.54;60.43
79144;BME280;68551;47.484;19.092;2023-07-13T01:23:41;99972.13;;;24.65;59.45
79144;BME280;68551;47.484;19.092;2023-07-13T01:26:44;99993.97;;;24.97;58.98
79144;BME280;68551;47.484;19.092;2023-07-13T01:29:47;99970.16;;;25.00;59.22
79144;BME280;68551;47.484;19.092;2023-07-13T01:32:50;99966.91;;;24.98;59.09
79144;BME280;68551;47.484;19.092;2023-07-13T01:35:52;99970.97;;;25.09;58.68
79144;BME280;68551;47.484;19.092;2023-07-13T01:38:55;99956.38;;;25.12;58.46
79144;BME280;68551;47.484;19.092;2023-07-13T01:41:57;99971.28;;;25.16;58.64
79144;BME280;68551;47.484;19.092;2023-07-13T01:45:02;99947.72;;;24.96;59.13
79144;BME280;68551;47.484;19.092;2023-07-13T01:48:05;99953.09;;;25.01;59.34
79144;BME280;68551;47.484;19.092;2023-07-13T01:51:13;99943.78;;;24.97;59.39
79144;BME280;68551;47.484;19.092;2023-07-13T01:54:25;99949.47;;;24.92;59.71
79144;BME280;68551;47.484;19.092;2023-07-13T01:57:30;99949.00;;;24.90;59.92
79144;BME280;68551;47.484;19.092;2023-07-13T02:00:37;99941.44;;;24.91;59.84
79144;BME280;68551;47.484;19.092;2023-07-13T02:03:39;99926.84;;;24.85;59.82
79144;BME280;68551;47.484;19.092;2023-07-13T02:06:42;99920.94;;;24.87;60.12
79144;BME280;68551;47.484;19.092;2023-07-13T02:09:45;99918.34;;;24.82;60.21
79144;BME280;68551;47.484;19.092;2023-07-13T02:12:50;99919.00;;;24.79;60.34
79144;BME280;68551;47.484;19.092;2023-07-13T02:15:52;99929.16;;;24.92;60.35
79144;BME280;68551;47.484;19.092;2023-07-13T02:19:02;99938.03;;;24.77;60.68
79144;BME280;68551;47.484;19.092;2023-07-13T02:22:06;99938.19;;;24.80;61.04
79144;BME280;68551;47.484;19.092;2023-07-13T02:25:09;99935.06;;;24.82;60.71
79144;BME280;68551;47.484;19.092;2023-07-13T02:28:11;99932.44;;;24.77;61.02
79144;BME280;68551;47.484;19.092;2023-07-13T02:31:15;99932.94;;;24.79;60.89
79144;BME280;68551;47.484;19.092;2023-07-13T02:34:17;99942.47;;;24.69;61.26
79144;BME280;68551;47.484;19.092;2023-07-13T02:37:22;99948.03;;;24.60;61.62
79144;BME280;68551;47.484;19.092;2023-07-13T02:40:29;99955.91;;;24.67;61.76
79144;BME280;68551;47.484;19.092;2023-07-13T02:43:36;99939.03;;;24.63;62.26
79144;BME280;68551;47.484;19.092;2023-07-13T02:46:39;99942.31;;;24.65;62.69
79144;BME280;68551;47.484;19.092;2023-07-13T02:49:41;99958.34;;;24.60;62.77
79144;BME280;68551;47.484;19.092;2023-07-13T02:52:46;99963.28;;;24.54;62.98
79144;BME280;68551;47.484;19.092;2023-07-13T02:55:51;99945.09;;;24.48;63.11
79144;BME280;68551;47.484;19.092;2023-07-13T02:58:54;99956.06;;;24.45;63.70
79144;BME280;68551;47.484;19.092;2023-07-13T03:02:02;99960.66;;;24.49;63.83
79144;BME280;68551;47.484;19.092;2023-07-13T03:05:07;99963.91;;;24.34;65.17
79144;BME280;68551;47.484;19.092;2023-07-13T03:08:11;99986.69;;;24.45;65.46
79144;BME280;68551;47.484;19.092;2023-07-13T03:11:21;99995.69;;;24.33;66.67
79144;BME280;68551;47.484;19.092;2023-07-13T03:14:34;99999.22;;;24.16;67.95
79144;BME280;68551;47.484;19.092;2023-07-13T03:17:40;100001.94;;;23.90;69.16
79144;BME280;68551;47.484;19.092;2023-07-13T03:20:44;100010.91;;;23.87;69.66
79144;BME280;68551;47.484;19.092;2023-07-13T03:23:47;100006.19;;;23.88;69.75
79144;BME280;68551;47.484;19.092;2023-07-13T03:26:50;99985.06;;;23.87;69.67
79144;BME280;68551;47.484;19.092;2023-07-13T03:29:55;99976.25;;;23.85;70.03
79144;BME280;68551;47.484;19.092;2023-07-13T03:33:00;99988.50;;;23.84;69.93
79144;BME280;68551;47.484;19.092;2023-07-13T03:36:05;99976.38;;;23.80;70.11
79144;BME280;68551;47.484;19.092;2023-07-13T03:39:15;99972.94;;;23.83;69.98
79144;BME280;68551;47.484;19.092;2023-07-13T03:42:28;99974.88;;;23.74;70.60
79144;BME280;68551;47.484;19.092;2023-07-13T03:45:31;100002.56;;;23.79;70.27
79144;BME280;68551;47.484;19.092;2023-07-13T03:48:33;100004.84;;;23.77;70.30
79144;BME280;68551;47.484;19.092;2023-07-13T03:51:39;99998.84;;;24.00;68.90
79144;BME280;68551;47.484;19.092;2023-07-13T03:54:47;99992.50;;;24.17;68.36
79144;BME280;68551;47.484;19.092;2023-07-13T03:57:58;99987.44;;;24.19;68.41
79144;BME280;68551;47.484;19.092;2023-07-13T04:01:02;99993.00;;;24.11;68.75
79144;BME280;68551;47.484;19.092;2023-07-13T04:04:05;99993.94;;;23.97;69.15
79144;BME280;68551;47.484;19.092;2023-07-13T04:07:07;99999.22;;;24.08;68.04
79144;BME280;68551;47.484;19.092;2023-07-13T04:10:14;100028.38;;;24.19;67.71
79144;BME280;68551;47.484;19.092;2023-07-13T04:13:19;100053.66;;;24.31;66.65
79144;BME280;68551;47.484;19.092;2023-07-13T04:16:21;100077.59;;;24.32;66.29
79144;BME280;68551;47.484;19.092;2023-07-13T04:19:23;100082.50;;;24.26;66.30
79144;BME280;68551;47.484;19.092;2023-07-13T04:22:30;100075.91;;;24.22;65.84
79144;BME280;68551;47.484;19.092;2023-07-13T04:25:33;100064.09;;;24.17;65.85
79144;BME280;68551;47.484;19.092;2023-07-13T04:28:40;100073.84;;;24.28;65.75
79144;BME280;68551;47.484;19.092;2023-07-13T04:31:42;100071.94;;;24.15;66.27
79144;BME280;68551;47.484;19.092;2023-07-13T04:34:47;100079.97;;;24.16;66.31
79144;BME280;68551;47.484;19.092;2023-07-13T04:37:55;100093.28;;;23.88;67.57
79144;BME280;68551;47.484;19.092;2023-07-13T04:41:02;100093.78;;;23.90;67.43
79144;BME280;68551;47.484;19.092;2023-07-13T04:44:06;100100.94;;;23.52;68.47
79144;BME280;68551;47.484;19.092;2023-07-13T04:47:10;100113.59;;;23.44;69.28
79144;BME280;68551;47.484;19.092;2023-07-13T04:50:15;100100.66;;;23.40;69.17
79144;BME280;68551;47.484;19.092;2023-07-13T04:53:28;100112.88;;;23.52;68.58
79144;BME280;68551;47.484;19.092;2023-07-13T04:56:33;100122.59;;;23.63;68.34
79144;BME280;68551;47.484;19.092;2023-07-13T04:59:40;100139.00;;;23.74;68.65
79144;BME280;68551;47.484;19.092;2023-07-13T05:02:46;100145.59;;;23.78;68.26
79144;BME280;68551;47.484;19.092;2023-07-13T05:05:58;100165.94;;;23.87;70.86
79144;BME280;68551;47.484;19.092;2023-07-13T05:09:03;100189.22;;;23.91;71.73
79144;BME280;68551;47.484;19.092;2023-07-13T05:12:08;100224.84;;;23.80;70.46
79144;BME280;68551;47.484;19.092;2023-07-13T05:15:11;100269.88;;;23.82;69.95
79144;BME280;68551;47.484;19.092;2023-07-13T05:18:13;100275.19;;;23.70;70.48
79144;BME280;68551;47.484;19.092;2023-07-13T05:21:18;100264.81;;;24.07;68.49
79144;BME280;68551;47.484;19.092;2023-07-13T05:24:22;100264.16;;;24.23;67.68
79144;BME280;68551;47.484;19.092;2023-07-13T05:27:27;100257.53;;;24.19;68.70
79144;BME280;68551;47.484;19.092;2023-07-13T05:30:31;100276.06;;;24.01;68.88
79144;BME280;68551;47.484;19.092;2023-07-13T05:33:35;100281.78;;;23.96;68.41
79144;BME280;68551;47.484;19.092;2023-07-13T05:36:43;100273.28;;;23.79;69.07
79144;BME280;68551;47.484;19.092;2023-07-13T05:39:45;100278.75;;;23.84;69.11
79144;BME280;68551;47.484;19.092;2023-07-13T05:42:48;100277.31;;;23.73;68.26
79144;BME280;68551;47.484;19.092;2023-07-13T05:45:53;100260.34;;;23.61;68.99
79144;BME280;68551;47.484;19.092;2023-07-13T05:48:59;100288.22;;;23.20;70.29
79144;BME280;68551;47.484;19.092;2023-07-13T05:52:02;100278.56;;;23.04;72.30
79144;BME280;68551;47.484;19.092;2023-07-13T05:55:07;100267.13;;;22.91;72.42
79144;BME280;68551;47.484;19.092;2023-07-13T05:58:11;100259.94;;;22.77;73.65
79144;BME280;68551;47.484;19.092;2023-07-13T06:01:16;100231.69;;;22.42;72.97
79144;BME280;68551;47.484;19.092;2023-07-13T06:04:20;100236.22;;;22.38;74.19
79144;BME280;68551;47.484;19.092;2023-07-13T06:07:22;100218.47;;;22.20;73.29
79144;BME280;68551;47.484;19.092;2023-07-13T06:10:24;100188.06;;;22.15;73.73
79144;BME280;68551;47.484;19.092;2023-07-13T06:13:29;100126.53;;;21.94;74.25
79144;BME280;68551;47.484;19.092;2023-07-13T06:16:31;100036.44;;;22.06;73.58
79144;BME280;68551;47.484;19.092;2023-07-13T06:19:34;99882.03;;;21.74;74.99
79144;BME280;68551;47.484;19.092;2023-07-13T06:22:44;99889.41;;;21.23;77.05
79144;BME280;68551;47.484;19.092;2023-07-13T06:25:47;99963.34;;;21.42;77.10
79144;BME280;68551;47.484;19.092;2023-07-13T06:28:49;99944.78;;;21.56;76.22
79144;BME280;68551;47.484;19.092;2023-07-13T06:31:51;99892.09;;;21.29;76.65
79144;BME280;68551;47.484;19.092;2023-07-13T06:34:54;99906.75;;;21.15;76.38
79144;BME280;68551;47.484;19.092;2023-07-13T06:37:56;99912.94;;;21.40;75.45
79144;BME280;68551;47.484;19.092;2023-07-13T06:40:59;99928.44;;;21.41;75.49
79144;BME280;68551;47.484;19.092;2023-07-13T06:44:01;99937.06;;;21.53;75.67
79144;BME280;68551;47.484;19.092;2023-07-13T06:47:06;99914.50;;;21.46;75.23
79144;BME280;68551;47.484;19.092;2023-07-13T06:50:11;99921.25;;;21.53;75.25
79144;BME280;68551;47.484;19.092;2023-07-13T06:53:13;99919.00;;;21.69;75.23
79144;BME280;68551;47.484;19.092;2023-07-13T06:56:16;99912.09;;;21.80;74.11
79144;BME280;68551;47.484;19.092;2023-07-13T06:59:20;99898.00;;;22.04;73.86
79144;BME280;68551;47.484;19.092;2023-07-13T07:02:23;99892.03;;;22.11;72.65
79144;BME280;68551;47.484;19.092;2023-07-13T07:05:30;99912.03;;;22.57;72.01
79144;BME280;68551;47.484;19.092;2023-07-13T07:08:33;99924.94;;;23.29;69.41
79144;BME280;68551;47.484;19.092;2023-07-13T07:11:35;99911.06;;;23.46;66.97
79144;BME280;68551;47.484;19.092;2023-07-13T07:14:37;99922.22;;;23.94;65.92
79144;BME280;68551;47.484;19.092;2023-07-13T07:17:45;99979.19;;;24.54;64.18
79144;BME280;68551;47.484;19.092;2023-07-13T07:20:49;100062.50;;;25.07;62.91
79144;BME280;68551;47.484;19.092;2023-07-13T07:23:54;100076.25;;;25.38;62.44
79144;BME280;68551;47.484;19.092;2023-07-13T07:26:57;100088.72;;;25.40;61.76
79144;BME280;68551;47.484;19.092;2023-07-13T07:30:05;100095.28;;;25.62;61.35
79144;BME280;68551;47.484;19.092;2023-07-13T07:33:28;100104.06;;;26.28;59.42
79144;BME280;68551;47.484;19.092;2023-07-13T07:36:35;100108.94;;;26.48;59.28
79144;BME280;68551;47.484;19.092;2023-07-13T07:39:45;100117.84;;;26.71;57.80
79144;BME280;68551;47.484;19.092;2023-07-13T07:43:11;100136.72;;;26.74;57.91
79144;BME280;68551;47.484;19.092;2023-07-13T07:46:13;100131.81;;;26.41;57.57
79144;BME280;68551;47.484;19.092;2023-07-13T07:49:19;100141.22;;;26.96;56.36
79144;BME280;68551;47.484;19.092;2023-07-13T07:52:21;100138.50;;;27.49;54.34
79144;BME280;68551;47.484;19.092;2023-07-13T07:55:26;100132.06;;;27.70;53.84
79144;BME280;68551;47.484;19.092;2023-07-13T07:58:31;100140.13;;;28.16;51.68
79144;BME280;68551;47.484;19.092;2023-07-13T08:01:37;100134.00;;;28.47;49.90
79144;BME280;68551;47.484;19.092;2023-07-13T08:04:42;100142.91;;;29.26;48.81
79144;BME280;68551;47.484;19.092;2023-07-13T08:07:51;100136.41;;;29.78;47.31
79144;BME280;68551;47.484;19.092;2023-07-13T08:10:53;100128.06;;;30.09;45.95
79144;BME280;68551;47.484;19.092;2023-07-13T08:14:05;100111.66;;;30.11;45.75
79144;BME280;68551;47.484;19.092;2023-07-13T08:17:08;100101.84;;;30.68;44.14
79144;BME280;68551;47.484;19.092;2023-07-13T08:20:12;100104.09;;;30.62;44.07
79144;BME280;68551;47.484;19.092;2023-07-13T08:23:14;100109.59;;;31.25;42.29
79144;BME280;68551;47.484;19.092;2023-07-13T08:26:18;100097.19;;;31.11;42.40
79144;BME280;68551;47.484;19.092;2023-07-13T08:29:21;100116.69;;;31.58;41.69
79144;BME280;68551;47.484;19.092;2023-07-13T08:32:28;100130.69;;;31.93;40.98
79144;BME280;68551;47.484;19.092;2023-07-13T08:35:33;100116.47;;;31.86;41.74
79144;BME280;68551;47.484;19.092;2023-07-13T08:38:39;100114.97;;;31.73;41.41
79144;BME280;68551;47.484;19.092;2023-07-13T08:41:41;100114.91;;;32.34;40.78
79144;BME280;68551;47.484;19.092;2023-07-13T08:54:38;100136.56;;;32.26;40.64
79144;BME280;68551;47.484;19.092;2023-07-13T08:57:45;100124.03;;;31.82;41.95
79144;BME280;68551;47.484;19.092;2023-07-13T09:01:28;100131.94;;;30.83;43.76
79144;BME280;68551;47.484;19.092;2023-07-13T09:05:04;100124.63;;;31.52;41.63
79144;BME280;68551;47.484;19.092;2023-07-13T09:11:47;100126.41;;;31.22;42.37
79144;BME280;68551;47.484;19.092;2023-07-13T09:14:56;100129.56;;;30.85;42.90
79144;BME280;68551;47.484;19.092;2023-07-13T09:18:11;100120.34;;;30.69;43.58
79144;BME280;68551;47.484;19.092;2023-07-13T09:27:42;100125.16;;;30.69;44.14
79144;BME280;68551;47.484;19.092;2023-07-13T09:33:47;100127.59;;;30.70;44.24
79144;BME280;68551;47.484;19.092;2023-07-13T09:36:53;100142.47;;;30.23;44.66
79144;BME280;68551;47.484;19.092;2023-07-13T09:39:58;100148.81;;;30.52;44.32
79144;BME280;68551;47.484;19.092;2023-07-13T09:43:04;100143.47;;;30.78;44.37
79144;BME280;68551;47.484;19.092;2023-07-13T09:46:20;100147.66;;;30.69;44.52
79144;BME280;68551;47.484;19.092;2023-07-13T09:49:28;100136.59;;;30.44;44.36
79144;BME280;68551;47.484;19.092;2023-07-13T09:52:42;100153.09;;;30.14;44.93
79144;BME280;68551;47.484;19.092;2023-07-13T09:55:51;100134.03;;;30.39;44.42
79144;BME280;68551;47.484;19.092;2023-07-13T09:58:56;100152.56;;;30.40;44.79
79144;BME280;68551;47.484;19.092;2023-07-13T10:01:59;100154.09;;;30.38;44.33
79144;BME280;68551;47.484;19.092;2023-07-13T10:05:11;100140.66;;;30.15;44.76
79144;BME280;68551;47.484;19.092;2023-07-13T10:08:32;100142.84;;;30.38;44.95
79144;BME280;68551;47.484;19.092;2023-07-13T10:11:40;100147.13;;;30.16;45.01
79144;BME280;68551;47.484;19.092;2023-07-13T10:14:43;100130.16;;;30.28;45.00
79144;BME280;68551;47.484;19.092;2023-07-13T10:17:46;100139.78;;;30.43;44.04
79144;BME280;68551;47.484;19.092;2023-07-13T10:21:11;100143.41;;;30.27;44.73
79144;BME280;68551;47.484;19.092;2023-07-13T10:24:37;100140.38;;;30.05;44.97
79144;BME280;68551;47.484;19.092;2023-07-13T10:27:40;100135.97;;;29.91;45.23
79144;BME280;68551;47.484;19.092;2023-07-13T10:30:48;100155.28;;;29.93;45.80
79144;BME280;68551;47.484;19.092;2023-07-13T10:33:53;100146.00;;;30.05;45.00
79144;BME280;68551;47.484;19.092;2023-07-13T10:36:56;100155.06;;;29.98;44.34
79144;BME280;68551;47.484;19.092;2023-07-13T10:40:01;100152.84;;;29.63;44.20
79144;BME280;68551;47.484;19.092;2023-07-13T10:43:31;100164.13;;;29.51;44.37
79144;BME280;68551;47.484;19.092;2023-07-13T10:46:37;100154.88;;;29.51;44.86
79144;BME280;68551;47.484;19.092;2023-07-13T10:49:40;100161.03;;;29.41;44.67
79144;BME280;68551;47.484;19.092;2023-07-13T10:52:51;100157.25;;;29.37;45.78
79144;BME280;68551;47.484;19.092;2023-07-13T10:56:05;100162.53;;;29.38;45.29
79144;BME280;68551;47.484;19.092;2023-07-13T10:59:23;100152.72;;;29.32;44.87
79144;BME280;68551;47.484;19.092;2023-07-13T11:02:34;100152.94;;;29.39;45.14
79144;BME280;68551;47.484;19.092;2023-07-13T11:05:40;100145.00;;;29.29;45.60
79144;BME280;68551;47.484;19.092;2023-07-13T11:11:56;100150.75;;;29.20;44.56
79144;BME280;68551;47.484;19.092;2023-07-13T11:18:20;100170.78;;;29.19;44.99
79144;BME280;68551;47.484;19.092;2023-07-13T11:21:27;100157.16;;;29.21;45.66
79144;BME280;68551;47.484;19.092;2023-07-13T11:25:00;100153.31;;;29.25;44.99
79144;BME280;68551;47.484;19.092;2023-07-13T11:31:14;100136.16;;;29.15;45.44
79144;BME280;68551;47.484;19.092;2023-07-13T11:34:26;100115.59;;;29.11;45.07
79144;BME280;68551;47.484;19.092;2023-07-13T11:37:30;100136.72;;;29.20;44.98
79144;BME280;68551;47.484;19.092;2023-07-13T11:40:36;100133.09;;;29.20;44.18
79144;BME280;68551;47.484;19.092;2023-07-13T11:43:38;100140.03;;;29.10;44.86
79144;BME280;68551;47.484;19.092;2023-07-13T11:46:49;100137.69;;;29.12;44.60
79144;BME280;68551;47.484;19.092;2023-07-13T11:49:56;100134.66;;;29.05;44.24
79144;BME280;68551;47.484;19.092;2023-07-13T11:53:02;100144.94;;;29.13;44.30
79144;BME280;68551;47.484;19.092;2023-07-13T11:56:07;100148.31;;;29.19;44.39
79144;BME280;68551;47.484;19.092;2023-07-13T11:59:12;100142.47;;;29.12;44.99
79144;BME280;68551;47.484;19.092;2023-07-13T12:02:28;100134.56;;;29.02;44.19
79144;BME280;68551;47.484;19.092;2023-07-13T12:05:35;100133.63;;;28.98;44.01
79144;BME280;68551;47.484;19.092;2023-07-13T12:08:41;100133.38;;;29.03;44.60
79144;BME280;68551;47.484;19.092;2023-07-13T12:11:49;100131.91;;;29.21;44.34
79144;BME280;68551;47.484;19.092;2023-07-13T12:14:52;100121.31;;;29.14;43.91
79144;BME280;68551;47.484;19.092;2023-07-13T12:17:55;100119.13;;;28.96;43.76
79144;BME280;68551;47.484;19.092;2023-07-13T12:20:59;100120.56;;;28.89;43.09
79144;BME280;68551;47.484;19.092;2023-07-13T12:24:17;100121.72;;;28.88;43.61
79144;BME280;68551;47.484;19.092;2023-07-13T12:27:27;100128.47;;;29.00;44.30
79144;BME280;68551;47.484;19.092;2023-07-13T12:30:35;100126.13;;;29.02;43.78
79144;BME280;68551;47.484;19.092;2023-07-13T12:33:43;100118.06;;;29.00;44.20
79144;BME280;68551;47.484;19.092;2023-07-13T12:39:58;100114.34;;;28.96;43.25
79144;BME280;68551;47.484;19.092;2023-07-13T12:43:03;100109.88;;;28.95;43.55
79144;BME280;68551;47.484;19.092;2023-07-13T12:46:19;100108.97;;;28.79;43.93
79144;BME280;68551;47.484;19.092;2023-07-13T12:49:30;100121.84;;;28.80;43.99
79144;BME280;68551;47.484;19.092;2023-07-13T12:52:39;100123.00;;;28.79;44.12
79144;BME280;68551;47.484;19.092;2023-07-13T12:59:00;100116.59;;;28.90;44.23
79144;BME280;68551;47.484;19.092;2023-07-13T13:05:28;100114.69;;;28.95;43.67
79144;BME280;68551;47.484;19.092;2023-07-13T13:08:37;100121.94;;;28.96;42.74
79144;BME280;68551;47.484;19.092;2023-07-13T13:11:44;100123.84;;;28.91;43.59
79144;BME280;68551;47.484;19.092;2023-07-13T13:14:48;100111.31;;;28.89;43.85
79144;BME280;68551;47.484;19.092;2023-07-13T13:17:51;100104.06;;;28.88;44.12
79144;BME280;68551;47.484;19.092;2023-07-13T13:20:54;100099.53;;;28.83;44.04
79144;BME280;68551;47.484;19.092;2023-07-13T13:23:56;100094.81;;;29.00;44.59
79144;BME280;68551;47.484;19.092;2023-07-13T13:27:02;100084.06;;;29.02;43.66
79144;BME280;68551;47.484;19.092;2023-07-13T13:30:13;100089.59;;;28.86;43.15
79144;BME280;68551;47.484;19.092;2023-07-13T13:33:18;100078.25;;;28.82;42.58
79144;BME280;68551;47.484;19.092;2023-07-13T13:36:22;100098.47;;;28.88;42.85
79144;BME280;68551;47.484;19.092;2023-07-13T13:39:34;100094.22;;;28.94;43.20
79144;BME280;68551;47.484;19.092;2023-07-13T13:42:39;100095.16;;;28.98;43.09
79144;BME280;68551;47.484;19.092;2023-07-13T13:45:44;100081.38;;;29.05;42.81
79144;BME280;68551;47.484;19.092;2023-07-13T13:48:48;100089.19;;;29.00;43.41
79144;BME280;68551;47.484;19.092;2023-07-13T13:51:52;100094.31;;;29.10;43.16
79144;BME280;68551;47.484;19.092;2023-07-13T13:54:56;100088.03;;;29.01;43.13
79144;BME280;68551;47.484;19.092;2023-07-13T13:58:01;100092.19;;;29.07;42.95
79144;BME280;68551;47.484;19.092;2023-07-13T14:01:04;100084.88;;;29.02;43.23
79144;BME280;68551;47.484;19.092;2023-07-13T14:04:20;100095.94;;;29.11;43.17
79144;BME280;68551;47.484;19.092;2023-07-13T14:07:26;100090.13;;;29.04;42.69
79144;BME280;68551;47.484;19.092;2023-07-13T14:10:29;100084.53;;;29.04;43.19
79144;BME280;68551;47.484;19.092;2023-07-13T14:13:37;100093.84;;;29.08;43.58
79144;BME280;68551;47.484;19.092;2023-07-13T14:16:45;100102.84;;;29.13;43.61
79144;BME280;68551;47.484;19.092;2023-07-13T14:19:53;100103.19;;;29.12;43.17
79144;BME280;68551;47.484;19.092;2023-07-13T14:23:01;100099.38;;;29.04;43.78
79144;BME280;68551;47.484;19.092;2023-07-13T14:26:14;100095.94;;;29.11;43.40
79144;BME280;68551;47.484;19.092;2023-07-13T14:29:19;100105.41;;;29.18;43.57
79144;BME280;68551;47.484;19.092;2023-07-13T14:32:25;100095.00;;;29.19;43.42
79144;BME280;68551;47.484;19.092;2023-07-13T14:35:29;100097.22;;;29.13;44.05
79144;BME280;68551;47.484;19.092;2023-07-13T14:38:41;100109.50;;;29.09;44.03
79144;BME280;68551;47.484;19.092;2023-07-13T14:41:46;100118.75;;;29.09;45.20
79144;BME280;68551;47.484;19.092;2023-07-13T14:44:51;100125.09;;;28.94;44.85
79144;BME280;68551;47.484;19.092;2023-07-13T14:47:57;100130.81;;;28.98;44.57
79144;BME280;68551;47.484;19.092;2023-07-13T14:51:02;100140.84;;;29.11;44.35
79144;BME280;68551;47.484;19.092;2023-07-13T14:54:08;100148.78;;;29.09;43.93
79144;BME280;68551;47.484;19.092;2023-07-13T14:57:20;100129.44;;;28.91;43.90
79144;BME280;68551;47.484;19.092;2023-07-13T15:00:23;100145.50;;;29.07;44.08
79144;BME280;68551;47.484;19.092;2023-07-13T15:03:27;100131.88;;;29.05;44.39
79144;BME280;68551;47.484;19.092;2023-07-13T15:06:29;100135.94;;;29.08;44.29
79144;BME280;68551;47.484;19.092;2023-07-13T15:09:33;100142.72;;;29.07;44.25
79144;BME280;68551;47.484;19.092;2023-07-13T15:12:38;100135.41;;;28.90;43.87
79144;BME280;68551;47.484;19.092;2023-07-13T15:15:45;100154.66;;;29.04;43.26
79144;BME280;68551;47.484;19.092;2023-07-13T15:18:49;100151.63;;;28.97;43.34
79144;BME280;68551;47.484;19.092;2023-07-13T15:21:54;100146.28;;;28.91;43.82
79144;BME280;68551;47.484;19.092;2023-07-13T15:24:58;100155.84;;;28.90;44.31
79144;BME280;68551;47.484;19.092;2023-07-13T15:28:07;100149.78;;;28.88;42.71
79144;BME280;68551;47.484;19.092;2023-07-13T15:31:22;100147.44;;;28.90;43.28
79144;BME280;68551;47.484;19.092;2023-07-13T15:34:25;100144.75;;;28.82;43.64
79144;BME280;68551;47.484;19.092;2023-07-13T15:37:30;100142.88;;;28.74;43.31
79144;BME280;68551;47.484;19.092;2023-07-13T15:40:35;100142.03;;;28.73;43.24
79144;BME280;68551;47.484;19.092;2023-07-13T15:43:40;100141.09;;;28.69;43.41
79144;BME280;68551;47.484;19.092;2023-07-13T15:46:44;100133.16;;;28.71;43.54
79144;BME280;68551;47.484;19.092;2023-07-13T15:49:46;100122.66;;;28.68;43.29
79144;BME280;68551;47.484;19.092;2023-07-13T15:52:54;100112.13;;;28.65;42.96
79144;BME280;68551;47.484;19.092;2023-07-13T15:55:58;100120.88;;;28.64;43.07
79144;BME280;68551;47.484;19.092;2023-07-13T15:59:05;100139.34;;;28.65;43.43
79144;BME280;68551;47.484;19.092;2023-07-13T16:02:16;100142.63;;;28.67;43.29
79144;BME280;68551;47.484;19.092;2023-07-13T16:05:21;100148.47;;;28.74;43.72
79144;BME280;68551;47.484;19.092;2023-07-13T16:08:31;100142.75;;;28.70;43.57
79144;BME280;68551;47.484;19.092;2023-07-13T16:11:38;100162.50;;;28.74;43.65
79144;BME280;68551;47.484;19.092;2023-07-13T16:14:43;100171.47;;;28.67;43.83
79144;BME280;68551;47.484;19.092;2023-07-13T16:17:47;100171.72;;;28.62;43.98
79144;BME280;68551;47.484;19.092;2023-07-13T16:20:50;100176.75;;;28.56;44.04
79144;BME280;68551;47.484;19.092;2023-07-13T16:24:00;100171.25;;;28.60;44.08
79144;BME280;68551;47.484;19.092;2023-07-13T16:27:09;100172.66;;;28.54;44.46
79144;BME280;68551;47.484;19.092;2023-07-13T16:30:18;100170.53;;;28.51;44.55
79144;BME280;68551;47.484;19.092;2023-07-13T16:33:26;100173.72;;;28.49;44.42
79144;BME280;68551;47.484;19.092;2023-07-13T16:36:28;100170.78;;;28.46;44.63
79144;BME280;68551;47.484;19.092;2023-07-13T16:39:34;100154.78;;;28.46;44.59
79144;BME280;68551;47.484;19.092;2023-07-13T16:42:39;100153.03;;;28.42;44.90
79144;BME280;68551;47.484;19.092;2023-07-13T16:45:41;100148.78;;;28.36;45.34